sensor_id;sensor_type;location;lat;lon;timestamp;P1;durP1;ratioP1;P2;durP2;ratioP2
15553;SDS011;7878;44.632;10.942;2022-09-01T00:02:13;17.58;;;15.45;;
15553;SDS011;7878;44.632;10.942;2022-09-01T00:04:41;21.95;;;15.02;;
15553;SDS011;7878;44.632;10.942;2022-09-01T00:07:08;18.27;;;16.17;;
15553;SDS011;7878;44.632;10.942;2022-09-01T00:09:36;19.92;;;16.13;;
15553;SDS011;7878;44.632;10.942;2022-09-01T00:12:03;16.73;;;14.90;;
15553;SDS011;7878;44.632;10.942;2022-09-01T00:14:33;17.23;;;15.43;;
15553;SDS011;7878;44.632;10.942;2022-09-01T00:17:02;18.85;;;15.77;;
15553;SDS011;7878;44.632;10.942;2022-09-01T00:19:31;18.73;;;16.88;;
15553;SDS011;7878;44.632;10.942;2022-09-01T00:21:58;18.45;;;16.42;;
15553;SDS011;7878;44.632;10.942;2022-09-01T00:24:24;17.02;;;15.23;;
15553;SDS011;7878;44.632;10.942;2022-09-01T00:26:51;21.08;;;16.30;;
15553;SDS011;7878;44.632;10.942;2022-09-01T00:29:18;17.50;;;15.45;;
15553;SDS011;7878;44.632;10.942;2022-09-01T00:31:44;18.55;;;16.63;;
15553;SDS011;7878;44.632;10.942;2022-09-01T00:34:11;19.60;;;16.60;;
15553;SDS011;7878;44.632;10.942;2022-09-01T00:36:36;20.02;;;15.98;;
15553;SDS011;7878;44.632;10.942;2022-09-01T00:39:03;19.05;;;17.08;;
15553;SDS011;7878;44.632;10.942;2022-09-01T00:41:30;22.98;;;17.63;;
15553;SDS011;7878;44.632;10.942;2022-09-01T00:44:02;18.83;;;17.00;;
15553;SDS011;7878;44.632;10.942;2022-09-01T00:46:34;19.23;;;17.40;;
15553;SDS011;7878;44.632;10.942;2022-09-01T00:49:03;17.52;;;15.70;;
15553;SDS011;7878;44.632;10.942;2022-09-01T00:51:30;20.38;;;16.42;;
15553;SDS011;7878;44.632;10.942;2022-09-01T00:53:58;21.95;;;17.15;;
15553;SDS011;7878;44.632;10.942;2022-09-01T00:56:25;19.60;;;17.08;;
15553;SDS011;7878;44.632;10.942;2022-09-01T00:58:52;19.67;;;17.70;;
15553;SDS011;7878;44.632;10.942;2022-09-01T01:01:19;20.35;;;17.45;;
15553;SDS011;7878;44.632;10.942;2022-09-01T01:03:44;19.23;;;17.30;;
15553;SDS011;7878;44.632;10.942;2022-09-01T01:06:11;20.45;;;18.33;;
15553;SDS011;7878;44.632;10.942;2022-09-01T01:08:40;21.55;;;18.30;;
15553;SDS011;7878;44.632;10.942;2022-09-01T01:11:21;19.45;;;17.55;;
15553;SDS011;7878;44.632;10.942;2022-09-01T01:13:54;20.25;;;16.95;;
15553;SDS011;7878;44.632;10.942;2022-09-01T01:16:24;24.17;;;17.75;;
15553;SDS011;7878;44.632;10.942;2022-09-01T01:18:51;20.05;;;17.67;;
15553;SDS011;7878;44.632;10.942;2022-09-01T01:21:24;20.15;;;18.20;;
15553;SDS011;7878;44.632;10.942;2022-09-01T01:26:43;18.65;;;16.70;;
15553;SDS011;7878;44.632;10.942;2022-09-01T01:29:09;21.45;;;19.20;;
15553;SDS011;7878;44.632;10.942;2022-09-01T01:31:35;20.08;;;17.67;;
15553;SDS011;7878;44.632;10.942;2022-09-01T01:34:02;19.60;;;16.85;;
15553;SDS011;7878;44.632;10.942;2022-09-01T01:36:32;17.85;;;16.05;;
15553;SDS011;7878;44.632;10.942;2022-09-01T01:39:11;19.33;;;17.38;;
15553;SDS011;7878;44.632;10.942;2022-09-01T01:41:43;21.88;;;16.88;;
15553;SDS011;7878;44.632;10.942;2022-09-01T01:44:13;21.40;;;16.42;;
15553;SDS011;7878;44.632;10.942;2022-09-01T01:46:45;18.10;;;16.20;;
15553;SDS011;7878;44.632;10.942;2022-09-01T01:49:14;21.10;;;16.95;;
15553;SDS011;7878;44.632;10.942;2022-09-01T01:51:45;19.58;;;16.98;;
15553;SDS011;7878;44.632;10.942;2022-09-01T01:54:17;17.88;;;16.08;;
15553;SDS011;7878;44.632;10.942;2022-09-01T01:56:43;19.02;;;17.02;;
15553;SDS011;7878;44.632;10.942;2022-09-01T01:59:09;19.95;;;16.23;;
15553;SDS011;7878;44.632;10.942;2022-09-01T02:01:38;17.83;;;15.85;;
15553;SDS011;7878;44.632;10.942;2022-09-01T02:04:06;19.45;;;17.38;;
15553;SDS011;7878;44.632;10.942;2022-09-01T02:06:35;19.95;;;15.88;;
15553;SDS011;7878;44.632;10.942;2022-09-01T02:09:04;18.38;;;16.50;;
15553;SDS011;7878;44.632;10.942;2022-09-01T02:11:31;19.00;;;17.13;;
15553;SDS011;7878;44.632;10.942;2022-09-01T02:13:58;24.02;;;16.40;;
15553;SDS011;7878;44.632;10.942;2022-09-01T02:16:25;22.27;;;16.77;;
15553;SDS011;7878;44.632;10.942;2022-09-01T02:18:53;18.35;;;16.52;;
15553;SDS011;7878;44.632;10.942;2022-09-01T02:21:21;18.60;;;16.70;;
15553;SDS011;7878;44.632;10.942;2022-09-01T02:23:49;18.15;;;16.30;;
15553;SDS011;7878;44.632;10.942;2022-09-01T02:26:29;19.90;;;17.80;;
15553;SDS011;7878;44.632;10.942;2022-09-01T02:29:02;22.23;;;18.95;;
15553;SDS011;7878;44.632;10.942;2022-09-01T02:31:34;22.10;;;19.73;;
15553;SDS011;7878;44.632;10.942;2022-09-01T02:34:03;25.35;;;20.20;;
15553;SDS011;7878;44.632;10.942;2022-09-01T02:36:29;25.05;;;20.05;;
15553;SDS011;7878;44.632;10.942;2022-09-01T02:38:59;25.75;;;19.17;;
15553;SDS011;7878;44.632;10.942;2022-09-01T02:41:25;22.38;;;20.05;;
15553;SDS011;7878;44.632;10.942;2022-09-01T02:43:56;21.35;;;19.27;;
15553;SDS011;7878;44.632;10.942;2022-09-01T02:46:24;23.23;;;20.88;;
15553;SDS011;7878;44.632;10.942;2022-09-01T02:48:50;22.15;;;19.85;;
15553;SDS011;7878;44.632;10.942;2022-09-01T02:51:17;22.83;;;19.85;;
15553;SDS011;7878;44.632;10.942;2022-09-01T02:53:45;22.13;;;19.42;;
15553;SDS011;7878;44.632;10.942;2022-09-01T02:56:17;22.48;;;20.17;;
15553;SDS011;7878;44.632;10.942;2022-09-01T02:58:47;23.58;;;21.15;;
15553;SDS011;7878;44.632;10.942;2022-09-01T03:01:25;22.48;;;20.17;;
15553;SDS011;7878;44.632;10.942;2022-09-01T03:03:53;24.48;;;20.58;;
15553;SDS011;7878;44.632;10.942;2022-09-01T03:06:22;24.25;;;20.98;;
15553;SDS011;7878;44.632;10.942;2022-09-01T03:08:52;31.48;;;23.98;;
15553;SDS011;7878;44.632;10.942;2022-09-01T03:11:19;24.20;;;21.65;;
15553;SDS011;7878;44.632;10.942;2022-09-01T03:13:45;23.98;;;21.08;;
15553;SDS011;7878;44.632;10.942;2022-09-01T03:16:11;24.33;;;21.45;;
15553;SDS011;7878;44.632;10.942;2022-09-01T03:18:37;24.55;;;21.92;;
15553;SDS011;7878;44.632;10.942;2022-09-01T03:21:04;24.15;;;21.75;;
15553;SDS011;7878;44.632;10.942;2022-09-01T03:23:30;24.42;;;21.45;;
15553;SDS011;7878;44.632;10.942;2022-09-01T03:25:57;24.92;;;22.48;;
15553;SDS011;7878;44.632;10.942;2022-09-01T03:28:24;24.90;;;22.20;;
15553;SDS011;7878;44.632;10.942;2022-09-01T03:30:50;25.75;;;21.08;;
15553;SDS011;7878;44.632;10.942;2022-09-01T03:33:18;23.98;;;21.55;;
15553;SDS011;7878;44.632;10.942;2022-09-01T03:35:45;26.27;;;23.15;;
15553;SDS011;7878;44.632;10.942;2022-09-01T03:38:11;25.13;;;22.60;;
15553;SDS011;7878;44.632;10.942;2022-09-01T03:40:44;23.70;;;21.20;;
15553;SDS011;7878;44.632;10.942;2022-09-01T03:43:11;27.08;;;21.75;;
15553;SDS011;7878;44.632;10.942;2022-09-01T03:45:37;25.42;;;22.80;;
15553;SDS011;7878;44.632;10.942;2022-09-01T03:48:05;26.52;;;23.35;;
15553;SDS011;7878;44.632;10.942;2022-09-01T03:50:34;25.63;;;22.90;;
15553;SDS011;7878;44.632;10.942;2022-09-01T03:53:05;29.00;;;23.35;;
15553;SDS011;7878;44.632;10.942;2022-09-01T03:55:32;25.48;;;21.90;;
15553;SDS011;7878;44.632;10.942;2022-09-01T03:58:00;25.83;;;23.02;;
15553;SDS011;7878;44.632;10.942;2022-09-01T04:00:34;24.67;;;22.08;;
15553;SDS011;7878;44.632;10.942;2022-09-01T04:03:05;25.48;;;22.90;;
15553;SDS011;7878;44.632;10.942;2022-09-01T04:05:33;24.98;;;22.23;;
15553;SDS011;7878;44.632;10.942;2022-09-01T04:08:03;28.63;;;23.35;;
15553;SDS011;7878;44.632;10.942;2022-09-01T04:10:32;26.73;;;23.83;;
15553;SDS011;7878;44.632;10.942;2022-09-01T04:12:59;28.40;;;25.67;;
15553;SDS011;7878;44.632;10.942;2022-09-01T04:15:26;28.60;;;25.60;;
15553;SDS011;7878;44.632;10.942;2022-09-01T04:17:52;30.60;;;25.30;;
15553;SDS011;7878;44.632;10.942;2022-09-01T04:20:38;30.20;;;26.95;;
15553;SDS011;7878;44.632;10.942;2022-09-01T04:23:17;29.02;;;26.25;;
15553;SDS011;7878;44.632;10.942;2022-09-01T04:28:39;28.27;;;25.38;;
15553;SDS011;7878;44.632;10.942;2022-09-01T04:31:11;29.90;;;26.83;;
15553;SDS011;7878;44.632;10.942;2022-09-01T04:33:41;30.55;;;27.27;;
15553;SDS011;7878;44.632;10.942;2022-09-01T04:36:14;30.50;;;27.13;;
15553;SDS011;7878;44.632;10.942;2022-09-01T04:38:44;28.73;;;25.70;;
15553;SDS011;7878;44.632;10.942;2022-09-01T04:41:18;30.48;;;27.30;;
15553;SDS011;7878;44.632;10.942;2022-09-01T04:43:45;32.25;;;27.77;;
15553;SDS011;7878;44.632;10.942;2022-09-01T04:46:12;31.30;;;28.13;;
15553;SDS011;7878;44.632;10.942;2022-09-01T04:48:39;30.30;;;26.45;;
15553;SDS011;7878;44.632;10.942;2022-09-01T04:51:09;32.97;;;27.27;;
15553;SDS011;7878;44.632;10.942;2022-09-01T04:53:36;29.75;;;26.60;;
15553;SDS011;7878;44.632;10.942;2022-09-01T04:56:03;28.70;;;25.90;;
15553;SDS011;7878;44.632;10.942;2022-09-01T04:58:30;27.95;;;25.08;;
15553;SDS011;7878;44.632;10.942;2022-09-01T05:00:56;33.20;;;26.08;;
15553;SDS011;7878;44.632;10.942;2022-09-01T05:03:24;29.05;;;26.20;;
15553;SDS011;7878;44.632;10.942;2022-09-01T05:05:50;32.92;;;26.17;;
15553;SDS011;7878;44.632;10.942;2022-09-01T05:08:18;31.45;;;26.05;;
15553;SDS011;7878;44.632;10.942;2022-09-01T05:10:47;33.40;;;26.55;;
15553;SDS011;7878;44.632;10.942;2022-09-01T05:13:16;32.17;;;27.60;;
15553;SDS011;7878;44.632;10.942;2022-09-01T05:15:43;35.17;;;28.17;;
15553;SDS011;7878;44.632;10.942;2022-09-01T05:18:14;35.75;;;27.75;;
15553;SDS011;7878;44.632;10.942;2022-09-01T05:20:47;31.45;;;25.77;;
15553;SDS011;7878;44.632;10.942;2022-09-01T05:23:14;32.47;;;26.63;;
15553;SDS011;7878;44.632;10.942;2022-09-01T05:25:44;31.08;;;26.92;;
15553;SDS011;7878;44.632;10.942;2022-09-01T05:28:14;28.73;;;23.85;;
15553;SDS011;7878;44.632;10.942;2022-09-01T05:30:42;28.80;;;25.73;;
15553;SDS011;7878;44.632;10.942;2022-09-01T05:33:11;32.42;;;25.83;;
15553;SDS011;7878;44.632;10.942;2022-09-01T05:35:41;26.38;;;23.58;;
15553;SDS011;7878;44.632;10.942;2022-09-01T05:38:16;33.20;;;24.15;;
15553;SDS011;7878;44.632;10.942;2022-09-01T05:40:43;34.92;;;24.65;;
15553;SDS011;7878;44.632;10.942;2022-09-01T05:43:12;28.08;;;23.48;;
15553;SDS011;7878;44.632;10.942;2022-09-01T05:45:39;30.10;;;24.75;;
15553;SDS011;7878;44.632;10.942;2022-09-01T05:48:08;30.58;;;25.60;;
15553;SDS011;7878;44.632;10.942;2022-09-01T05:50:38;29.58;;;26.20;;
15553;SDS011;7878;44.632;10.942;2022-09-01T05:53:06;33.85;;;25.60;;
15553;SDS011;7878;44.632;10.942;2022-09-01T05:55:39;33.78;;;27.20;;
15553;SDS011;7878;44.632;10.942;2022-09-01T05:58:08;29.25;;;25.55;;
15553;SDS011;7878;44.632;10.942;2022-09-01T06:00:42;29.48;;;26.48;;
15553;SDS011;7878;44.632;10.942;2022-09-01T06:03:13;29.13;;;25.80;;
15553;SDS011;7878;44.632;10.942;2022-09-01T06:05:42;33.80;;;26.23;;
15553;SDS011;7878;44.632;10.942;2022-09-01T06:08:12;30.30;;;25.83;;
15553;SDS011;7878;44.632;10.942;2022-09-01T06:10:39;29.30;;;24.98;;
15553;SDS011;7878;44.632;10.942;2022-09-01T06:13:06;30.50;;;26.35;;
15553;SDS011;7878;44.632;10.942;2022-09-01T06:15:33;31.80;;;25.50;;
15553;SDS011;7878;44.632;10.942;2022-09-01T06:18:03;27.17;;;24.38;;
15553;SDS011;7878;44.632;10.942;2022-09-01T06:20:39;27.20;;;24.50;;
15553;SDS011;7878;44.632;10.942;2022-09-01T06:23:06;31.60;;;23.13;;
15553;SDS011;7878;44.632;10.942;2022-09-01T06:25:35;28.00;;;24.40;;
15553;SDS011;7878;44.632;10.942;2022-09-01T06:28:01;29.85;;;24.13;;
15553;SDS011;7878;44.632;10.942;2022-09-01T06:30:28;25.58;;;21.40;;
15553;SDS011;7878;44.632;10.942;2022-09-01T06:32:55;30.98;;;22.33;;
15553;SDS011;7878;44.632;10.942;2022-09-01T06:35:21;22.60;;;20.23;;
15553;SDS011;7878;44.632;10.942;2022-09-01T06:37:53;24.50;;;20.85;;
15553;SDS011;7878;44.632;10.942;2022-09-01T06:40:20;21.98;;;19.65;;
15553;SDS011;7878;44.632;10.942;2022-09-01T06:42:49;20.60;;;18.40;;
15553;SDS011;7878;44.632;10.942;2022-09-01T06:45:17;20.75;;;18.67;;
15553;SDS011;7878;44.632;10.942;2022-09-01T06:47:45;25.35;;;19.17;;
15553;SDS011;7878;44.632;10.942;2022-09-01T06:50:13;24.27;;;18.40;;
15553;SDS011;7878;44.632;10.942;2022-09-01T06:52:41;20.48;;;15.57;;
15553;SDS011;7878;44.632;10.942;2022-09-01T06:55:10;15.15;;;11.85;;
15553;SDS011;7878;44.632;10.942;2022-09-01T06:57:39;17.63;;;12.32;;
15553;SDS011;7878;44.632;10.942;2022-09-01T07:00:16;13.93;;;11.73;;
15553;SDS011;7878;44.632;10.942;2022-09-01T07:02:44;16.75;;;10.00;;
15553;SDS011;7878;44.632;10.942;2022-09-01T07:05:17;10.00;;;9.05;;
15553;SDS011;7878;44.632;10.942;2022-09-01T07:07:46;20.67;;;10.68;;
15553;SDS011;7878;44.632;10.942;2022-09-01T07:10:14;10.77;;;8.70;;
15553;SDS011;7878;44.632;10.942;2022-09-01T07:12:44;13.95;;;10.73;;
15553;SDS011;7878;44.632;10.942;2022-09-01T07:15:12;7.65;;;6.95;;
15553;SDS011;7878;44.632;10.942;2022-09-01T07:17:47;11.07;;;7.15;;
15553;SDS011;7878;44.632;10.942;2022-09-01T07:20:16;7.55;;;6.75;;
15553;SDS011;7878;44.632;10.942;2022-09-01T07:22:45;9.43;;;7.78;;
15553;SDS011;7878;44.632;10.942;2022-09-01T07:25:11;8.30;;;7.40;;
15553;SDS011;7878;44.632;10.942;2022-09-01T07:27:38;8.25;;;6.25;;
15553;SDS011;7878;44.632;10.942;2022-09-01T07:30:05;10.48;;;7.38;;
15553;SDS011;7878;44.632;10.942;2022-09-01T07:32:34;7.88;;;7.05;;
15553;SDS011;7878;44.632;10.942;2022-09-01T07:35:01;7.75;;;6.65;;
15553;SDS011;7878;44.632;10.942;2022-09-01T07:37:30;8.13;;;7.32;;
15553;SDS011;7878;44.632;10.942;2022-09-01T07:39:56;9.00;;;8.02;;
15553;SDS011;7878;44.632;10.942;2022-09-01T07:42:22;13.38;;;7.32;;
15553;SDS011;7878;44.632;10.942;2022-09-01T07:44:48;9.90;;;6.35;;
15553;SDS011;7878;44.632;10.942;2022-09-01T07:47:14;9.55;;;7.63;;
15553;SDS011;7878;44.632;10.942;2022-09-01T07:49:40;10.63;;;6.75;;
15553;SDS011;7878;44.632;10.942;2022-09-01T07:52:06;7.88;;;6.55;;
15553;SDS011;7878;44.632;10.942;2022-09-01T07:54:32;9.65;;;7.18;;
15553;SDS011;7878;44.632;10.942;2022-09-01T07:56:58;7.93;;;6.78;;
15553;SDS011;7878;44.632;10.942;2022-09-01T07:59:25;7.32;;;6.15;;
15553;SDS011;7878;44.632;10.942;2022-09-01T08:01:52;9.57;;;7.00;;
15553;SDS011;7878;44.632;10.942;2022-09-01T08:04:18;8.60;;;6.95;;
15553;SDS011;7878;44.632;10.942;2022-09-01T08:06:46;13.80;;;7.40;;
15553;SDS011;7878;44.632;10.942;2022-09-01T08:09:12;13.32;;;7.47;;
15553;SDS011;7878;44.632;10.942;2022-09-01T08:11:38;11.65;;;7.22;;
15553;SDS011;7878;44.632;10.942;2022-09-01T08:14:04;10.70;;;8.07;;
15553;SDS011;7878;44.632;10.942;2022-09-01T08:16:30;11.70;;;7.80;;
15553;SDS011;7878;44.632;10.942;2022-09-01T08:18:56;9.45;;;7.05;;
15553;SDS011;7878;44.632;10.942;2022-09-01T08:21:23;9.73;;;6.55;;
15553;SDS011;7878;44.632;10.942;2022-09-01T08:23:52;7.43;;;6.47;;
15553;SDS011;7878;44.632;10.942;2022-09-01T08:26:20;9.00;;;6.28;;
15553;SDS011;7878;44.632;10.942;2022-09-01T08:28:47;12.50;;;8.05;;
15553;SDS011;7878;44.632;10.942;2022-09-01T08:31:14;9.75;;;6.18;;
15553;SDS011;7878;44.632;10.942;2022-09-01T08:33:42;6.53;;;5.53;;
15553;SDS011;7878;44.632;10.942;2022-09-01T08:36:09;9.00;;;6.75;;
15553;SDS011;7878;44.632;10.942;2022-09-01T08:38:37;10.25;;;6.63;;
15553;SDS011;7878;44.632;10.942;2022-09-01T08:41:04;7.47;;;6.32;;
15553;SDS011;7878;44.632;10.942;2022-09-01T08:43:59;9.02;;;6.40;;
15553;SDS011;7878;44.632;10.942;2022-09-01T08:46:34;8.95;;;6.57;;
15553;SDS011;7878;44.632;10.942;2022-09-01T08:49:06;10.57;;;6.32;;
15553;SDS011;7878;44.632;10.942;2022-09-01T08:51:51;6.15;;;5.55;;
15553;SDS011;7878;44.632;10.942;2022-09-01T08:54:20;6.63;;;5.97;;
15553;SDS011;7878;44.632;10.942;2022-09-01T08:56:55;12.82;;;7.00;;
15553;SDS011;7878;44.632;10.942;2022-09-01T08:59:24;12.15;;;6.50;;
15553;SDS011;7878;44.632;10.942;2022-09-01T09:10:37;8.40;;;5.82;;
15553;SDS011;7878;44.632;10.942;2022-09-01T09:13:19;8.82;;;6.03;;
15553;SDS011;7878;44.632;10.942;2022-09-01T09:15:57;7.25;;;5.93;;
15553;SDS011;7878;44.632;10.942;2022-09-01T09:18:30;10.07;;;5.90;;
15553;SDS011;7878;44.632;10.942;2022-09-01T09:21:20;8.23;;;5.90;;
15553;SDS011;7878;44.632;10.942;2022-09-01T09:24:02;6.63;;;4.13;;
15553;SDS011;7878;44.632;10.942;2022-09-01T09:26:37;6.82;;;3.95;;
15553;SDS011;7878;44.632;10.942;2022-09-01T09:29:03;8.30;;;4.82;;
15553;SDS011;7878;44.632;10.942;2022-09-01T09:31:30;6.28;;;4.78;;
15553;SDS011;7878;44.632;10.942;2022-09-01T09:33:58;9.60;;;5.53;;
15553;SDS011;7878;44.632;10.942;2022-09-01T09:36:34;9.00;;;4.63;;
15553;SDS011;7878;44.632;10.942;2022-09-01T09:39:06;8.25;;;4.95;;
15553;SDS011;7878;44.632;10.942;2022-09-01T09:41:37;9.50;;;4.88;;
15553;SDS011;7878;44.632;10.942;2022-09-01T09:46:44;7.63;;;3.97;;
15553;SDS011;7878;44.632;10.942;2022-09-01T09:49:16;9.65;;;4.70;;
15553;SDS011;7878;44.632;10.942;2022-09-01T09:54:27;7.28;;;3.38;;
15553;SDS011;7878;44.632;10.942;2022-09-01T09:59:43;3.78;;;3.20;;
15553;SDS011;7878;44.632;10.942;2022-09-01T10:04:57;5.07;;;3.90;;
15553;SDS011;7878;44.632;10.942;2022-09-01T10:07:43;6.20;;;3.67;;
15553;SDS011;7878;44.632;10.942;2022-09-01T10:10:26;4.97;;;3.47;;
15553;SDS011;7878;44.632;10.942;2022-09-01T10:13:02;5.82;;;3.20;;
15553;SDS011;7878;44.632;10.942;2022-09-01T10:15:29;5.18;;;3.28;;
15553;SDS011;7878;44.632;10.942;2022-09-01T10:17:59;6.57;;;3.15;;
15553;SDS011;7878;44.632;10.942;2022-09-01T10:20:31;5.03;;;3.25;;
15553;SDS011;7878;44.632;10.942;2022-09-01T10:23:01;5.55;;;3.13;;
15553;SDS011;7878;44.632;10.942;2022-09-01T10:25:27;4.50;;;2.72;;
15553;SDS011;7878;44.632;10.942;2022-09-01T10:30:43;12.13;;;3.03;;
15553;SDS011;7878;44.632;10.942;2022-09-01T10:33:13;7.65;;;2.75;;
15553;SDS011;7878;44.632;10.942;2022-09-01T10:35:43;9.68;;;2.65;;
15553;SDS011;7878;44.632;10.942;2022-09-01T10:38:16;9.98;;;2.88;;
15553;SDS011;7878;44.632;10.942;2022-09-01T10:40:53;3.70;;;2.60;;
15553;SDS011;7878;44.632;10.942;2022-09-01T10:43:47;5.68;;;2.30;;
15553;SDS011;7878;44.632;10.942;2022-09-01T10:48:44;5.47;;;2.33;;
15553;SDS011;7878;44.632;10.942;2022-09-01T10:53:41;4.45;;;2.60;;
15553;SDS011;7878;44.632;10.942;2022-09-01T10:56:16;5.80;;;2.50;;
15553;SDS011;7878;44.632;10.942;2022-09-01T11:04:11;3.90;;;2.30;;
15553;SDS011;7878;44.632;10.942;2022-09-01T11:09:28;5.68;;;2.20;;
15553;SDS011;7878;44.632;10.942;2022-09-01T11:12:05;5.57;;;2.35;;
15553;SDS011;7878;44.632;10.942;2022-09-01T11:14:45;6.50;;;3.05;;
15553;SDS011;7878;44.632;10.942;2022-09-01T11:17:16;9.20;;;2.60;;
15553;SDS011;7878;44.632;10.942;2022-09-01T11:20:21;5.20;;;2.30;;
15553;SDS011;7878;44.632;10.942;2022-09-01T11:28:07;6.22;;;2.72;;
15553;SDS011;7878;44.632;10.942;2022-09-01T11:30:40;2.70;;;1.88;;
15553;SDS011;7878;44.632;10.942;2022-09-01T11:47:26;5.13;;;2.03;;
15553;SDS011;7878;44.632;10.942;2022-09-01T11:50:00;5.80;;;2.05;;
15553;SDS011;7878;44.632;10.942;2022-09-01T11:52:31;4.78;;;2.20;;
15553;SDS011;7878;44.632;10.942;2022-09-01T11:55:00;3.08;;;2.20;;
15553;SDS011;7878;44.632;10.942;2022-09-01T11:57:28;3.22;;;2.05;;
15553;SDS011;7878;44.632;10.942;2022-09-01T11:59:54;5.70;;;2.40;;
15553;SDS011;7878;44.632;10.942;2022-09-01T12:02:31;3.38;;;2.00;;
15553;SDS011;7878;44.632;10.942;2022-09-01T12:05:00;6.05;;;2.00;;
15553;SDS011;7878;44.632;10.942;2022-09-01T12:09:59;4.03;;;1.95;;
15553;SDS011;7878;44.632;10.942;2022-09-01T12:12:42;2.90;;;2.05;;
15553;SDS011;7878;44.632;10.942;2022-09-01T12:15:29;5.13;;;2.00;;
15553;SDS011;7878;44.632;10.942;2022-09-01T12:18:07;3.28;;;2.25;;
15553;SDS011;7878;44.632;10.942;2022-09-01T12:20:35;3.97;;;2.38;;
15553;SDS011;7878;44.632;10.942;2022-09-01T12:23:03;3.75;;;2.60;;
15553;SDS011;7878;44.632;10.942;2022-09-01T12:25:46;4.68;;;2.58;;
15553;SDS011;7878;44.632;10.942;2022-09-01T12:28:12;5.50;;;2.13;;
15553;SDS011;7878;44.632;10.942;2022-09-01T12:30:40;5.05;;;3.05;;
15553;SDS011;7878;44.632;10.942;2022-09-01T12:33:08;3.20;;;2.20;;
15553;SDS011;7878;44.632;10.942;2022-09-01T12:35:36;8.30;;;2.35;;
15553;SDS011;7878;44.632;10.942;2022-09-01T12:40:42;3.78;;;2.50;;
15553;SDS011;7878;44.632;10.942;2022-09-01T12:43:09;8.48;;;2.47;;
15553;SDS011;7878;44.632;10.942;2022-09-01T12:45:39;8.52;;;2.47;;
15553;SDS011;7878;44.632;10.942;2022-09-01T12:48:05;4.18;;;1.83;;
15553;SDS011;7878;44.632;10.942;2022-09-01T12:50:33;4.07;;;2.30;;
15553;SDS011;7878;44.632;10.942;2022-09-01T12:53:01;9.35;;;2.63;;
15553;SDS011;7878;44.632;10.942;2022-09-01T12:55:32;3.47;;;2.28;;
15553;SDS011;7878;44.632;10.942;2022-09-01T12:58:01;4.97;;;2.35;;
15553;SDS011;7878;44.632;10.942;2022-09-01T13:00:29;6.80;;;2.28;;
15553;SDS011;7878;44.632;10.942;2022-09-01T13:03:07;2.92;;;2.30;;
15553;SDS011;7878;44.632;10.942;2022-09-01T13:05:42;4.90;;;2.28;;
15553;SDS011;7878;44.632;10.942;2022-09-01T13:08:18;6.18;;;2.30;;
15553;SDS011;7878;44.632;10.942;2022-09-01T13:10:46;5.07;;;2.20;;
15553;SDS011;7878;44.632;10.942;2022-09-01T13:13:17;5.60;;;1.92;;
15553;SDS011;7878;44.632;10.942;2022-09-01T13:15:45;3.40;;;2.08;;
15553;SDS011;7878;44.632;10.942;2022-09-01T13:18:14;3.65;;;1.75;;
15553;SDS011;7878;44.632;10.942;2022-09-01T13:20:41;6.57;;;2.05;;
15553;SDS011;7878;44.632;10.942;2022-09-01T13:23:07;4.07;;;2.10;;
15553;SDS011;7878;44.632;10.942;2022-09-01T13:25:33;2.33;;;2.10;;
15553;SDS011;7878;44.632;10.942;2022-09-01T13:27:59;5.47;;;2.08;;
15553;SDS011;7878;44.632;10.942;2022-09-01T13:30:26;5.38;;;1.83;;
15553;SDS011;7878;44.632;10.942;2022-09-01T13:32:54;3.17;;;1.65;;
15553;SDS011;7878;44.632;10.942;2022-09-01T13:35:20;6.35;;;1.80;;
15553;SDS011;7878;44.632;10.942;2022-09-01T13:37:47;2.55;;;1.50;;
15553;SDS011;7878;44.632;10.942;2022-09-01T13:40:14;3.17;;;1.77;;
15553;SDS011;7878;44.632;10.942;2022-09-01T13:42:42;6.00;;;2.30;;
15553;SDS011;7878;44.632;10.942;2022-09-01T13:45:09;4.43;;;2.17;;
15553;SDS011;7878;44.632;10.942;2022-09-01T13:47:37;5.53;;;2.67;;
15553;SDS011;7878;44.632;10.942;2022-09-01T13:50:04;7.57;;;2.80;;
15553;SDS011;7878;44.632;10.942;2022-09-01T13:52:30;10.73;;;2.20;;
15553;SDS011;7878;44.632;10.942;2022-09-01T13:54:56;4.10;;;2.05;;
15553;SDS011;7878;44.632;10.942;2022-09-01T13:57:22;7.80;;;2.38;;
15553;SDS011;7878;44.632;10.942;2022-09-01T13:59:48;6.18;;;2.70;;
15553;SDS011;7878;44.632;10.942;2022-09-01T14:02:14;4.00;;;2.53;;
15553;SDS011;7878;44.632;10.942;2022-09-01T14:04:39;5.72;;;2.90;;
15553;SDS011;7878;44.632;10.942;2022-09-01T14:07:05;5.45;;;2.65;;
15553;SDS011;7878;44.632;10.942;2022-09-01T14:09:31;3.53;;;2.15;;
15553;SDS011;7878;44.632;10.942;2022-09-01T14:11:57;5.85;;;2.67;;
15553;SDS011;7878;44.632;10.942;2022-09-01T14:14:23;2.90;;;1.92;;
15553;SDS011;7878;44.632;10.942;2022-09-01T14:16:49;3.17;;;2.25;;
15553;SDS011;7878;44.632;10.942;2022-09-01T14:19:14;2.92;;;2.25;;
15553;SDS011;7878;44.632;10.942;2022-09-01T14:21:41;3.92;;;2.45;;
15553;SDS011;7878;44.632;10.942;2022-09-01T14:24:08;4.00;;;2.13;;
15553;SDS011;7878;44.632;10.942;2022-09-01T14:26:33;5.13;;;2.60;;
15553;SDS011;7878;44.632;10.942;2022-09-01T14:28:59;3.10;;;2.13;;
15553;SDS011;7878;44.632;10.942;2022-09-01T14:31:26;6.30;;;2.50;;
15553;SDS011;7878;44.632;10.942;2022-09-01T14:33:53;7.82;;;2.40;;
15553;SDS011;7878;44.632;10.942;2022-09-01T14:36:24;9.77;;;2.35;;
15553;SDS011;7878;44.632;10.942;2022-09-01T14:38:50;3.88;;;2.22;;
15553;SDS011;7878;44.632;10.942;2022-09-01T14:41:19;2.75;;;2.00;;
15553;SDS011;7878;44.632;10.942;2022-09-01T14:43:49;4.82;;;3.03;;
15553;SDS011;7878;44.632;10.942;2022-09-01T14:46:16;3.00;;;2.17;;
15553;SDS011;7878;44.632;10.942;2022-09-01T14:48:43;3.85;;;2.28;;
15553;SDS011;7878;44.632;10.942;2022-09-01T14:51:16;3.88;;;1.92;;
15553;SDS011;7878;44.632;10.942;2022-09-01T14:53:46;3.28;;;2.40;;
15553;SDS011;7878;44.632;10.942;2022-09-01T14:56:13;4.45;;;2.00;;
15553;SDS011;7878;44.632;10.942;2022-09-01T14:58:42;2.70;;;1.80;;
15553;SDS011;7878;44.632;10.942;2022-09-01T15:01:18;5.85;;;2.15;;
15553;SDS011;7878;44.632;10.942;2022-09-01T15:03:45;4.03;;;2.03;;
15553;SDS011;7878;44.632;10.942;2022-09-01T15:06:13;3.38;;;1.98;;
15553;SDS011;7878;44.632;10.942;2022-09-01T15:08:40;7.13;;;2.28;;
15553;SDS011;7878;44.632;10.942;2022-09-01T15:11:09;1.85;;;1.70;;
15553;SDS011;7878;44.632;10.942;2022-09-01T15:13:37;14.95;;;3.40;;
15553;SDS011;7878;44.632;10.942;2022-09-01T15:16:04;8.48;;;2.20;;
15553;SDS011;7878;44.632;10.942;2022-09-01T15:18:30;3.30;;;2.10;;
15553;SDS011;7878;44.632;10.942;2022-09-01T15:20:56;3.42;;;1.55;;
15553;SDS011;7878;44.632;10.942;2022-09-01T15:23:23;5.47;;;1.80;;
15553;SDS011;7878;44.632;10.942;2022-09-01T15:25:51;2.72;;;1.75;;
15553;SDS011;7878;44.632;10.942;2022-09-01T15:28:19;4.28;;;1.90;;
15553;SDS011;7878;44.632;10.942;2022-09-01T15:30:45;1.75;;;1.60;;
15553;SDS011;7878;44.632;10.942;2022-09-01T15:33:11;3.25;;;1.80;;
15553;SDS011;7878;44.632;10.942;2022-09-01T15:35:38;3.47;;;1.80;;
15553;SDS011;7878;44.632;10.942;2022-09-01T15:38:03;2.85;;;1.92;;
15553;SDS011;7878;44.632;10.942;2022-09-01T15:40:31;2.67;;;1.85;;
15553;SDS011;7878;44.632;10.942;2022-09-01T15:42:57;2.75;;;1.60;;
15553;SDS011;7878;44.632;10.942;2022-09-01T15:45:25;7.35;;;1.98;;
15553;SDS011;7878;44.632;10.942;2022-09-01T15:47:52;2.50;;;1.70;;
15553;SDS011;7878;44.632;10.942;2022-09-01T15:50:20;1.90;;;1.67;;
15553;SDS011;7878;44.632;10.942;2022-09-01T15:52:55;7.07;;;2.10;;